createdAt,value
2022-12-28T00:00:21.555Z,1012.99
2022-12-28T00:01:01.997Z,1012.97
2022-12-28T00:01:42.621Z,1012.96
2022-12-28T00:02:23.158Z,1012.91
2022-12-28T00:03:03.634Z,1012.91
2022-12-28T00:03:44.112Z,1012.93
2022-12-28T00:04:24.625Z,1012.99
2022-12-28T00:05:05.173Z,1012.95
2022-12-28T00:05:45.697Z,1012.9
2022-12-28T00:06:26.224Z,1012.91
2022-12-28T00:07:06.781Z,1012.91
2022-12-28T00:07:47.306Z,1012.88
2022-12-28T00:08:27.849Z,1012.87
2022-12-28T00:09:08.370Z,1012.88
2022-12-28T00:09:48.909Z,1012.85
2022-12-28T00:11:07.029Z,1012.89
2022-12-28T00:11:13.359Z,1012.87
2022-12-28T00:11:50.479Z,1012.89
2022-12-28T00:12:31.014Z,1012.88
2022-12-28T00:14:28.928Z,1012.84
2022-12-28T00:15:09.506Z,1012.88
2022-12-28T00:15:50.049Z,1012.86
2022-12-28T00:16:30.677Z,1012.87
2022-12-28T00:17:11.073Z,1012.9
2022-12-28T00:17:51.569Z,1012.9
2022-12-28T00:18:32.085Z,1012.87
2022-12-28T00:19:12.610Z,1012.85
2022-12-28T00:19:53.131Z,1012.84
2022-12-28T00:20:33.663Z,1012.85
2022-12-28T00:21:14.180Z,1012.85
2022-12-28T00:21:54.717Z,1012.85
2022-12-28T00:22:35.220Z,1012.85
2022-12-28T00:23:15.779Z,1012.84
2022-12-28T00:23:57.139Z,1012.82
2022-12-28T00:24:36.842Z,1012.78
2022-12-28T00:25:17.343Z,1012.82
2022-12-28T00:25:57.846Z,1012.77
2022-12-28T00:26:38.386Z,1012.77
2022-12-28T00:27:18.889Z,1012.73
2022-12-28T00:27:59.417Z,1012.75
2022-12-28T00:28:39.940Z,1012.75
2022-12-28T00:29:20.446Z,1012.69
2022-12-28T00:30:01.000Z,1012.69
2022-12-28T00:30:42.206Z,1012.64
2022-12-28T00:31:22.750Z,1012.62
2022-12-28T00:32:03.260Z,1012.61
2022-12-28T00:32:43.782Z,1012.6
2022-12-28T00:33:24.294Z,1012.6
2022-12-28T00:35:22.206Z,1012.59
2022-12-28T00:36:02.721Z,1012.55
2022-12-28T00:37:07.838Z,1012.55
2022-12-28T00:37:23.777Z,1012.55
2022-12-28T00:38:04.280Z,1012.54
2022-12-28T00:38:44.798Z,1012.55
2022-12-28T00:39:25.335Z,1012.51
2022-12-28T00:40:05.852Z,1012.5
2022-12-28T00:40:46.407Z,1012.51
2022-12-28T00:42:59.128Z,1012.43
2022-12-28T00:43:41.610Z,1012.44
2022-12-28T00:44:22.124Z,1012.42
2022-12-28T00:45:02.648Z,1012.4
2022-12-28T00:45:45.063Z,1012.41
2022-12-28T00:46:25.597Z,1012.4
2022-12-28T00:47:06.131Z,1012.36
2022-12-28T00:47:46.673Z,1012.38
2022-12-28T00:48:27.224Z,1012.39
2022-12-28T00:49:09.549Z,1012.34
2022-12-28T00:51:23.173Z,1012.37
2022-12-28T00:52:04.364Z,1012.35
2022-12-28T00:52:45.606Z,1012.35
2022-12-28T00:53:26.872Z,1012.32
2022-12-28T00:55:41.431Z,1012.31
2022-12-28T00:56:22.824Z,1012.31
2022-12-28T00:57:03.371Z,1012.3
2022-12-28T00:57:43.890Z,1012.28
2022-12-28T00:58:24.412Z,1012.25
2022-12-28T00:59:04.923Z,1012.28
2022-12-28T00:59:45.457Z,1012.27
2022-12-28T01:00:26.875Z,1012.26
2022-12-28T01:01:07.467Z,1012.25
2022-12-28T01:01:47.949Z,1012.23
2022-12-28T01:02:28.438Z,1012.21
2022-12-28T01:03:08.967Z,1012.22
2022-12-28T01:03:49.432Z,1012.22
2022-12-28T01:04:30.033Z,1012.21
2022-12-28T01:05:10.494Z,1012.16
2022-12-28T01:05:51.562Z,1012.15
2022-12-28T01:06:32.065Z,1012.09
2022-12-28T01:07:12.593Z,1012.12
2022-12-28T01:07:53.239Z,1012.07
2022-12-28T01:08:33.795Z,1012.06
2022-12-28T01:09:14.352Z,1012.06
2022-12-28T01:09:54.929Z,1012.02
2022-12-28T01:10:35.426Z,1012.06
2022-12-28T01:11:16.049Z,1012
2022-12-28T01:11:56.605Z,1012.01
2022-12-28T01:12:38.394Z,1012
2022-12-28T01:13:17.704Z,1011.98
2022-12-28T01:13:58.355Z,1011.95
2022-12-28T01:14:38.868Z,1011.99
2022-12-28T01:15:19.560Z,1011.97
2022-12-28T01:16:00.203Z,1011.97
2022-12-28T01:16:40.739Z,1011.96
2022-12-28T01:17:21.268Z,1011.94
2022-12-28T01:18:01.818Z,1011.94
2022-12-28T01:18:42.381Z,1011.92
2022-12-28T01:19:22.964Z,1011.88
2022-12-28T01:21:36.017Z,1011.92
2022-12-28T01:22:16.536Z,1011.94
2022-12-28T01:22:57.065Z,1011.92
2022-12-28T01:23:37.593Z,1011.92
2022-12-28T01:24:18.112Z,1011.93
2022-12-28T01:24:58.690Z,1011.95
2022-12-28T01:25:39.727Z,1011.95
2022-12-28T01:26:20.271Z,1011.99
2022-12-28T01:27:00.804Z,1012
2022-12-28T01:27:41.327Z,1011.97
2022-12-28T01:28:21.848Z,1011.97
2022-12-28T01:29:02.365Z,1011.98
2022-12-28T01:29:42.904Z,1011.94
2022-12-28T01:30:23.463Z,1011.91
2022-12-28T01:31:04.012Z,1011.86
2022-12-28T01:31:44.632Z,1011.9
2022-12-28T01:32:25.125Z,1011.91
2022-12-28T01:33:06.606Z,1011.82
2022-12-28T01:33:47.174Z,1011.86
2022-12-28T01:34:28.213Z,1011.86
2022-12-28T01:35:08.702Z,1011.89
2022-12-28T01:35:49.219Z,1011.77
2022-12-28T01:36:29.792Z,1011.74
2022-12-28T01:37:10.299Z,1011.73
2022-12-28T01:37:50.812Z,1011.69
2022-12-28T01:38:31.921Z,1011.71
2022-12-28T01:39:12.478Z,1011.69
2022-12-28T01:39:53.005Z,1011.67
2022-12-28T01:40:33.541Z,1011.67
2022-12-28T01:41:14.082Z,1011.65
2022-12-28T01:41:54.609Z,1011.68
2022-12-28T01:42:35.109Z,1011.65
2022-12-28T01:43:15.620Z,1011.67
2022-12-28T01:43:56.180Z,1011.63
2022-12-28T01:44:36.681Z,1011.62
2022-12-28T01:45:17.257Z,1011.62
2022-12-28T01:45:57.874Z,1011.64
2022-12-28T01:46:38.362Z,1011.63
2022-12-28T01:47:18.859Z,1011.69
2022-12-28T01:47:59.398Z,1011.69
2022-12-28T01:48:39.917Z,1011.65
2022-12-28T01:49:20.438Z,1011.61
2022-12-28T01:50:01.020Z,1011.63
2022-12-28T01:50:41.539Z,1011.67
2022-12-28T01:51:22.079Z,1011.66
2022-12-28T01:52:02.623Z,1011.7
2022-12-28T01:52:43.117Z,1011.65
2022-12-28T01:53:23.636Z,1011.68
2022-12-28T01:54:04.179Z,1011.64
2022-12-28T01:54:44.703Z,1011.61
2022-12-28T01:55:25.211Z,1011.55
2022-12-28T01:56:05.721Z,1011.57
2022-12-28T01:56:46.245Z,1011.58
2022-12-28T01:57:26.768Z,1011.58
2022-12-28T01:58:07.265Z,1011.54
2022-12-28T01:58:47.773Z,1011.55
2022-12-28T01:59:28.355Z,1011.54
2022-12-28T02:00:08.899Z,1011.5
2022-12-28T02:00:49.411Z,1011.56
2022-12-28T02:01:30.050Z,1011.55
2022-12-28T02:02:10.699Z,1011.49
2022-12-28T02:02:51.074Z,1011.43
2022-12-28T02:03:31.612Z,1011.43
2022-12-28T02:04:12.138Z,1011.48
2022-12-28T02:04:52.665Z,1011.45
2022-12-28T02:05:33.200Z,1011.44
2022-12-28T02:06:13.723Z,1011.44
2022-12-28T02:06:54.236Z,1011.31
2022-12-28T02:07:34.784Z,1011.29
2022-12-28T02:09:32.719Z,1011.18
2022-12-28T02:10:40.362Z,1011.14
2022-12-28T02:10:54.410Z,1011.16
2022-12-28T02:11:34.912Z,1011.08
2022-12-28T02:12:15.450Z,1011.11
2022-12-28T02:12:56.568Z,1011.03
2022-12-28T02:13:36.986Z,1011.02
2022-12-28T02:14:17.536Z,1010.96
2022-12-28T02:14:58.085Z,1010.97
2022-12-28T02:15:38.558Z,1011
2022-12-28T02:16:19.093Z,1011.02
2022-12-28T02:17:00.500Z,1011.06
2022-12-28T02:17:41.001Z,1011.02
2022-12-28T02:18:21.549Z,1011.04
2022-12-28T02:19:02.043Z,1011.05
2022-12-28T02:19:42.633Z,1011.03
2022-12-28T02:20:23.159Z,1011.02
2022-12-28T02:21:03.695Z,1011.04
2022-12-28T02:21:44.228Z,1011.01
2022-12-28T02:22:24.751Z,1011.03
2022-12-28T02:23:05.259Z,1011.07
2022-12-28T02:23:45.788Z,1011.05
2022-12-28T02:24:26.297Z,1011.06
2022-12-28T02:25:11.881Z,1011.09
2022-12-28T02:25:47.332Z,1011.13
2022-12-28T02:26:27.889Z,1011.1
2022-12-28T02:27:08.408Z,1011.16
2022-12-28T02:27:48.935Z,1011.12
2022-12-28T02:28:29.469Z,1011.11
2022-12-28T02:29:09.982Z,1011.01
2022-12-28T02:29:50.532Z,1010.97
2022-12-28T02:31:48.445Z,1010.89
2022-12-28T02:32:28.969Z,1010.88
2022-12-28T02:33:09.458Z,1010.88
2022-12-28T02:33:50.532Z,1010.89
2022-12-28T02:36:03.265Z,1010.84
2022-12-28T02:36:43.817Z,1010.89
2022-12-28T02:37:28.112Z,1010.93
2022-12-28T02:38:08.718Z,1010.91
2022-12-28T02:38:49.262Z,1010.91
2022-12-28T02:39:29.911Z,1010.88
2022-12-28T02:40:10.459Z,1010.9
2022-12-28T02:40:50.973Z,1010.84
2022-12-28T02:41:32.124Z,1010.84
2022-12-28T02:42:12.728Z,1010.84
2022-12-28T02:42:53.319Z,1010.89
2022-12-28T02:43:33.926Z,1010.93
2022-12-28T02:44:14.480Z,1010.94
2022-12-28T02:44:55.070Z,1010.93
2022-12-28T02:45:35.695Z,1010.9
2022-12-28T02:46:16.273Z,1010.92
2022-12-28T02:46:56.734Z,1010.85
2022-12-28T02:47:37.277Z,1010.86
2022-12-28T02:48:17.892Z,1010.85
2022-12-28T02:48:58.397Z,1010.82
2022-12-28T02:49:38.915Z,1010.8
2022-12-28T02:50:19.450Z,1010.77
2022-12-28T02:50:59.946Z,1010.74
2022-12-28T02:51:40.631Z,1010.75
2022-12-28T02:52:21.161Z,1010.72
2022-12-28T02:53:01.750Z,1010.7
2022-12-28T02:54:59.716Z,1010.68
2022-12-28T02:55:40.227Z,1010.68
2022-12-28T02:56:20.779Z,1010.68
2022-12-28T02:57:01.299Z,1010.65
2022-12-28T02:57:42.622Z,1010.65
2022-12-28T02:59:36.942Z,1010.62
2022-12-28T03:00:17.444Z,1010.57
2022-12-28T03:00:58.128Z,1010.6
2022-12-28T03:01:38.581Z,1010.6
2022-12-28T03:02:19.264Z,1010.6
2022-12-28T03:02:59.738Z,1010.58
2022-12-28T03:03:40.201Z,1010.52
2022-12-28T03:04:20.742Z,1010.56
2022-12-28T03:05:02.137Z,1010.52
2022-12-28T03:05:42.692Z,1010.49
2022-12-28T03:06:28.520Z,1010.52
2022-12-28T03:07:03.779Z,1010.49
2022-12-28T03:09:01.690Z,1010.49
2022-12-28T03:09:42.217Z,1010.52
2022-12-28T03:10:22.740Z,1010.48
2022-12-28T03:11:03.272Z,1010.47
2022-12-28T03:11:43.783Z,1010.44
2022-12-28T03:12:24.353Z,1010.45
2022-12-28T03:14:37.890Z,1010.49
2022-12-28T03:15:18.462Z,1010.49
2022-12-28T03:16:00.808Z,1010.5
2022-12-28T03:16:41.280Z,1010.49
2022-12-28T03:17:21.788Z,1010.43
2022-12-28T03:19:16.162Z,1010.43
2022-12-28T03:19:56.695Z,1010.46
2022-12-28T03:20:37.235Z,1010.44
2022-12-28T03:21:17.757Z,1010.46
2022-12-28T03:21:58.267Z,1010.46
2022-12-28T03:22:38.769Z,1010.45
2022-12-28T03:23:19.274Z,1010.44
2022-12-28T03:23:59.814Z,1010.44
2022-12-28T03:24:40.327Z,1010.39
2022-12-28T03:25:20.865Z,1010.42
2022-12-28T03:26:01.408Z,1010.36
2022-12-28T03:26:41.888Z,1010.35
2022-12-28T03:27:22.476Z,1010.35
2022-12-28T03:28:02.995Z,1010.31
2022-12-28T03:28:43.553Z,1010.31
2022-12-28T03:29:24.086Z,1010.32
2022-12-28T03:30:04.588Z,1010.3
2022-12-28T03:30:45.204Z,1010.32
2022-12-28T03:31:25.671Z,1010.25
2022-12-28T03:32:06.132Z,1010.24
2022-12-28T03:32:47.390Z,1010.26
2022-12-28T03:33:27.890Z,1010.27
2022-12-28T03:34:09.309Z,1010.27
2022-12-28T03:34:49.863Z,1010.28
2022-12-28T03:35:30.382Z,1010.23
2022-12-28T03:36:10.928Z,1010.25
2022-12-28T03:36:51.475Z,1010.23
2022-12-28T03:37:31.971Z,1010.24
2022-12-28T03:38:12.491Z,1010.26
2022-12-28T03:38:53.020Z,1010.26
2022-12-28T03:39:33.575Z,1010.21
2022-12-28T03:40:14.085Z,1010.22
2022-12-28T03:40:54.621Z,1010.23
2022-12-28T03:41:35.129Z,1010.22
2022-12-28T03:42:16.352Z,1010.24
2022-12-28T03:42:56.884Z,1010.19
2022-12-28T03:45:10.071Z,1010.17
2022-12-28T03:45:50.634Z,1010.17
2022-12-28T03:46:31.269Z,1010.15
2022-12-28T03:47:11.727Z,1010.21
2022-12-28T03:47:52.272Z,1010.18
2022-12-28T03:48:32.807Z,1010.2
2022-12-28T03:49:13.304Z,1010.18
2022-12-28T03:49:53.854Z,1010.2
2022-12-28T03:50:34.382Z,1010.19
2022-12-28T03:51:14.921Z,1010.19
2022-12-28T03:51:55.953Z,1010.16
2022-12-28T03:52:36.472Z,1010.15
2022-12-28T03:53:17.047Z,1010.16
2022-12-28T03:53:57.540Z,1010.12
2022-12-28T03:54:38.050Z,1010.11
2022-12-28T03:55:18.588Z,1010.12
2022-12-28T03:55:59.093Z,1010.12
2022-12-28T03:56:39.622Z,1010.07
2022-12-28T03:57:20.141Z,1010.1
2022-12-28T03:58:00.642Z,1010.06
2022-12-28T03:58:41.158Z,1010.04
2022-12-28T03:59:21.668Z,1010.02
2022-12-28T04:00:02.187Z,1010.05
2022-12-28T04:00:43.457Z,1010.03
2022-12-28T04:01:24.055Z,1010.02
2022-12-28T04:02:04.567Z,1010.02
2022-12-28T04:02:45.297Z,1010.03
2022-12-28T04:03:25.614Z,1009.97
2022-12-28T04:04:07.133Z,1009.95
2022-12-28T04:04:49.053Z,1009.96
2022-12-28T04:05:29.570Z,1009.98
2022-12-28T04:06:10.117Z,1009.94
2022-12-28T04:08:27.205Z,1009.91
2022-12-28T04:09:07.796Z,1009.89
2022-12-28T04:09:50.169Z,1009.87
2022-12-28T04:10:31.454Z,1009.83
2022-12-28T04:11:11.978Z,1009.82
2022-12-28T04:11:55.085Z,1009.83
2022-12-28T04:12:35.633Z,1009.86
2022-12-28T04:14:34.837Z,1009.87
2022-12-28T04:15:15.411Z,1009.89
2022-12-28T04:15:56.021Z,1009.85
2022-12-28T04:16:36.483Z,1009.86
2022-12-28T04:17:16.980Z,1009.83
2022-12-28T04:17:57.489Z,1009.84
2022-12-28T04:18:37.977Z,1009.82
2022-12-28T04:20:36.424Z,1009.8
2022-12-28T04:21:17.520Z,1009.86
2022-12-28T04:21:58.187Z,1009.82
2022-12-28T04:22:38.781Z,1009.85
2022-12-28T04:23:19.274Z,1009.84
2022-12-28T04:23:59.800Z,1009.85
2022-12-28T04:24:40.339Z,1009.84
2022-12-28T04:25:20.882Z,1009.87
2022-12-28T04:26:01.403Z,1009.89
2022-12-28T04:26:41.889Z,1009.88
2022-12-28T04:28:39.835Z,1009.86
2022-12-28T04:29:20.347Z,1009.9
2022-12-28T04:30:00.867Z,1009.94
2022-12-28T04:30:41.419Z,1009.89
2022-12-28T04:31:22.004Z,1009.87
2022-12-28T04:32:03.131Z,1009.88
2022-12-28T04:32:43.613Z,1009.9
2022-12-28T04:33:24.109Z,1009.79
2022-12-28T04:34:04.622Z,1009.75
2022-12-28T04:34:48.581Z,1009.82
2022-12-28T04:35:25.670Z,1009.78
2022-12-28T04:37:23.575Z,1009.74
2022-12-28T04:38:04.135Z,1009.75
2022-12-28T04:38:44.639Z,1009.72
2022-12-28T04:39:25.157Z,1009.65
2022-12-28T04:40:05.670Z,1009.67
2022-12-28T04:40:46.221Z,1009.63
2022-12-28T04:41:26.723Z,1009.63
2022-12-28T04:42:07.273Z,1009.65
2022-12-28T04:42:47.829Z,1009.65
2022-12-28T04:43:28.480Z,1009.66
2022-12-28T04:44:09.035Z,1009.61
2022-12-28T04:44:49.539Z,1009.59
2022-12-28T04:45:30.078Z,1009.63
2022-12-28T04:46:10.643Z,1009.63
2022-12-28T04:46:51.181Z,1009.6
2022-12-28T04:47:31.669Z,1009.59
2022-12-28T04:48:12.165Z,1009.54
2022-12-28T04:48:52.693Z,1009.56
2022-12-28T04:49:33.214Z,1009.53
2022-12-28T04:50:13.736Z,1009.53
2022-12-28T04:50:54.242Z,1009.47
2022-12-28T04:51:34.764Z,1009.5
2022-12-28T04:52:15.272Z,1009.49
2022-12-28T04:52:55.860Z,1009.47
2022-12-28T04:53:36.390Z,1009.44
2022-12-28T04:54:16.895Z,1009.42
2022-12-28T04:54:57.432Z,1009.44
2022-12-28T04:55:37.998Z,1009.42
2022-12-28T04:56:18.520Z,1009.44
2022-12-28T04:56:59.036Z,1009.45
2022-12-28T04:57:39.587Z,1009.44
2022-12-28T04:58:20.105Z,1009.38
2022-12-28T04:59:00.684Z,1009.41
2022-12-28T04:59:41.169Z,1009.41
2022-12-28T05:00:21.697Z,1009.39
2022-12-28T05:01:02.350Z,1009.39
2022-12-28T05:01:42.921Z,1009.37
2022-12-28T05:02:23.395Z,1009.4
2022-12-28T05:03:03.890Z,1009.42
2022-12-28T05:03:46.979Z,1009.46
2022-12-28T05:04:24.942Z,1009.47
2022-12-28T05:07:42.081Z,1009.56
2022-12-28T05:08:22.631Z,1009.6
2022-12-28T05:09:03.162Z,1009.58
2022-12-28T05:09:43.717Z,1009.58
2022-12-28T05:10:24.255Z,1009.55
2022-12-28T05:11:04.911Z,1009.5
2022-12-28T05:11:45.434Z,1009.5
2022-12-28T05:12:25.938Z,1009.44
2022-12-28T05:13:06.497Z,1009.42
2022-12-28T05:13:46.999Z,1009.4
2022-12-28T05:14:29.881Z,1009.41
2022-12-28T05:15:08.032Z,1009.35
2022-12-28T05:17:05.932Z,1009.41
2022-12-28T05:17:46.627Z,1009.38
2022-12-28T05:18:27.056Z,1009.42
2022-12-28T05:19:07.597Z,1009.44
2022-12-28T05:19:48.116Z,1009.45
2022-12-28T05:20:29.570Z,1009.46
2022-12-28T05:21:10.154Z,1009.46
2022-12-28T05:21:50.680Z,1009.48
2022-12-28T05:22:33.140Z,1009.45
2022-12-28T05:23:11.742Z,1009.44
2022-12-28T05:23:52.263Z,1009.42
2022-12-28T05:24:32.771Z,1009.43
2022-12-28T05:25:13.351Z,1009.41
2022-12-28T05:25:53.877Z,1009.46
2022-12-28T05:26:34.953Z,1009.47
2022-12-28T05:27:15.488Z,1009.46
2022-12-28T05:27:56.032Z,1009.46
2022-12-28T05:28:36.558Z,1009.45
2022-12-28T05:29:17.069Z,1009.44
2022-12-28T05:29:57.585Z,1009.37
2022-12-28T05:30:38.089Z,1009.35
2022-12-28T05:31:18.632Z,1009.39
2022-12-28T05:31:59.125Z,1009.33
2022-12-28T05:32:39.601Z,1009.31
2022-12-28T05:34:52.692Z,1009.28
2022-12-28T05:35:33.179Z,1009.3
2022-12-28T05:36:13.705Z,1009.2
2022-12-28T05:36:54.210Z,1009.18
2022-12-28T05:39:08.755Z,1009.17
2022-12-28T05:39:49.262Z,1009.22
2022-12-28T05:40:29.809Z,1009.12
2022-12-28T05:41:10.347Z,1009.16
2022-12-28T05:41:50.882Z,1009.17
2022-12-28T05:42:31.395Z,1009.12
2022-12-28T05:43:11.920Z,1009.12
2022-12-28T05:45:25.803Z,1009.21
2022-12-28T05:46:06.336Z,1009.14
2022-12-28T05:46:46.873Z,1009.16
2022-12-28T05:47:27.386Z,1009.12
2022-12-28T05:48:07.929Z,1009.13
2022-12-28T05:48:49.010Z,1009.17
2022-12-28T05:49:29.505Z,1009.17
2022-12-28T05:50:10.097Z,1009.17
2022-12-28T05:50:51.022Z,1009.18
2022-12-28T05:51:31.085Z,1009.11
2022-12-28T05:52:11.630Z,1009.06
2022-12-28T05:52:52.150Z,1009.06
2022-12-28T05:53:32.658Z,1008.99
2022-12-28T05:54:13.219Z,1009.02
2022-12-28T05:54:53.772Z,1009.03
2022-12-28T05:55:34.325Z,1008.99
2022-12-28T05:56:15.170Z,1008.95
2022-12-28T05:56:56.751Z,1008.96
2022-12-28T05:57:37.237Z,1008.96
2022-12-28T05:58:17.753Z,1008.95
2022-12-28T05:58:58.311Z,1008.97
2022-12-28T06:01:11.397Z,1008.94
2022-12-28T06:01:52.112Z,1008.93
2022-12-28T06:02:32.514Z,1008.91
2022-12-28T06:03:13.015Z,1008.95
2022-12-28T06:03:53.455Z,1008.95
2022-12-28T06:04:33.972Z,1008.96
2022-12-28T06:05:14.500Z,1008.95
2022-12-28T06:05:55.247Z,1008.95
2022-12-28T06:06:35.774Z,1008.95
2022-12-28T06:07:16.296Z,1008.94
2022-12-28T06:07:56.824Z,1008.88
2022-12-28T06:08:37.311Z,1008.89
2022-12-28T06:09:17.841Z,1008.84
2022-12-28T06:11:15.760Z,1008.85
2022-12-28T06:11:56.276Z,1008.82
2022-12-28T06:12:36.793Z,1008.85
2022-12-28T06:13:17.327Z,1008.86
2022-12-28T06:13:57.842Z,1008.83
2022-12-28T06:14:38.357Z,1008.85
2022-12-28T06:15:18.875Z,1008.82
2022-12-28T06:15:59.500Z,1008.78
2022-12-28T06:16:40.041Z,1008.87
2022-12-28T06:17:20.530Z,1008.87
2022-12-28T06:18:01.072Z,1008.86
2022-12-28T06:18:42.164Z,1008.83
2022-12-28T06:19:22.709Z,1008.88
2022-12-28T06:21:20.446Z,1008.78
2022-12-28T06:22:00.953Z,1008.82
2022-12-28T06:22:42.258Z,1008.79
2022-12-28T06:23:22.791Z,1008.86
2022-12-28T06:25:37.294Z,1008.82
2022-12-28T06:26:18.527Z,1008.81
2022-12-28T06:26:59.724Z,1008.8
2022-12-28T06:27:40.306Z,1008.82
2022-12-28T06:28:20.821Z,1008.8
2022-12-28T06:29:01.316Z,1008.82
2022-12-28T06:29:42.585Z,1008.79
2022-12-28T06:30:23.102Z,1008.77
2022-12-28T06:31:03.682Z,1008.74
2022-12-28T06:31:44.271Z,1008.78
2022-12-28T06:32:24.690Z,1008.76
2022-12-28T06:33:05.222Z,1008.79
2022-12-28T06:33:45.740Z,1008.73
2022-12-28T06:34:26.291Z,1008.78
2022-12-28T06:35:06.834Z,1008.77
2022-12-28T06:35:48.218Z,1008.78
2022-12-28T06:36:28.800Z,1008.8
2022-12-28T06:37:09.328Z,1008.77
2022-12-28T06:37:50.519Z,1008.76
2022-12-28T06:38:31.088Z,1008.79
2022-12-28T06:39:11.596Z,1008.72
2022-12-28T06:39:52.132Z,1008.68
2022-12-28T06:40:54.480Z,1008.71
2022-12-28T06:41:14.442Z,1008.7
2022-12-28T06:41:53.703Z,1008.66
2022-12-28T06:42:34.272Z,1008.67
2022-12-28T06:43:15.322Z,1008.64
2022-12-28T06:43:55.866Z,1008.68
2022-12-28T06:44:40.695Z,1008.66
2022-12-28T06:45:16.946Z,1008.64
2022-12-28T06:45:57.449Z,1008.6
2022-12-28T06:46:37.966Z,1008.63
2022-12-28T06:48:51.928Z,1008.63
2022-12-28T06:49:32.391Z,1008.52
2022-12-28T06:50:12.905Z,1008.59
2022-12-28T06:50:53.445Z,1008.58
2022-12-28T06:51:33.996Z,1008.58
2022-12-28T06:52:14.514Z,1008.62
2022-12-28T06:52:55.079Z,1008.56
2022-12-28T06:53:35.577Z,1008.6
2022-12-28T06:54:16.177Z,1008.6
2022-12-28T06:54:56.680Z,1008.59
2022-12-28T06:55:38.012Z,1008.61
2022-12-28T06:56:18.539Z,1008.61
2022-12-28T06:56:59.043Z,1008.56
2022-12-28T06:57:39.561Z,1008.59
2022-12-28T06:59:37.582Z,1008.59
2022-12-28T07:00:18.504Z,1008.59
2022-12-28T07:00:59.319Z,1008.56
2022-12-28T07:01:40.364Z,1008.57
2022-12-28T07:03:58.870Z,1008.57
2022-12-28T07:04:39.963Z,1008.61
2022-12-28T07:05:20.483Z,1008.58
2022-12-28T07:06:01.065Z,1008.51
2022-12-28T07:06:41.598Z,1008.56
2022-12-28T07:07:22.121Z,1008.55
2022-12-28T07:08:05.200Z,1008.56
2022-12-28T07:08:43.165Z,1008.56
2022-12-28T07:09:23.681Z,1008.54
2022-12-28T07:10:04.208Z,1008.54
2022-12-28T07:10:44.755Z,1008.53
2022-12-28T07:11:25.261Z,1008.54
2022-12-28T07:12:05.829Z,1008.51
2022-12-28T07:12:46.370Z,1008.52
2022-12-28T07:14:44.273Z,1008.5
2022-12-28T07:15:24.807Z,1008.52
2022-12-28T07:16:05.324Z,1008.53
2022-12-28T07:18:18.339Z,1008.5
2022-12-28T07:18:58.856Z,1008.51
2022-12-28T07:19:39.395Z,1008.48
2022-12-28T07:20:19.946Z,1008.5
2022-12-28T07:21:00.619Z,1008.47
2022-12-28T07:21:41.304Z,1008.47
2022-12-28T07:22:22.395Z,1008.45
2022-12-28T07:23:02.877Z,1008.45
2022-12-28T07:23:43.422Z,1008.45
2022-12-28T07:24:23.927Z,1008.48
2022-12-28T07:25:04.465Z,1008.45
2022-12-28T07:25:44.984Z,1008.46
2022-12-28T07:26:25.534Z,1008.45
2022-12-28T07:27:06.437Z,1008.48
2022-12-28T07:27:46.973Z,1008.54
2022-12-28T07:28:27.536Z,1008.41
2022-12-28T07:29:08.656Z,1008.39
2022-12-28T07:29:49.136Z,1008.39
2022-12-28T07:30:29.888Z,1008.42
2022-12-28T07:31:10.216Z,1008.37
2022-12-28T07:31:50.697Z,1008.37
2022-12-28T07:32:31.258Z,1008.38
2022-12-28T07:33:11.790Z,1008.38
2022-12-28T07:33:52.322Z,1008.4
2022-12-28T07:36:05.370Z,1008.31
2022-12-28T07:36:45.916Z,1008.35
2022-12-28T07:37:26.453Z,1008.32
2022-12-28T07:38:06.981Z,1008.34
2022-12-28T07:38:47.503Z,1008.36
2022-12-28T07:39:28.045Z,1008.4
2022-12-28T07:40:08.559Z,1008.35
2022-12-28T07:40:49.072Z,1008.32
2022-12-28T07:41:29.680Z,1008.37
2022-12-28T07:42:10.110Z,1008.3
2022-12-28T07:42:50.641Z,1008.26
2022-12-28T07:43:32.142Z,1008.34
2022-12-28T07:44:12.699Z,1008.33
2022-12-28T07:44:53.201Z,1008.31
2022-12-28T07:45:33.720Z,1008.34
2022-12-28T07:46:14.428Z,1008.37
2022-12-28T07:46:54.837Z,1008.35
2022-12-28T07:47:35.357Z,1008.34
2022-12-28T07:48:15.902Z,1008.33
2022-12-28T07:48:56.400Z,1008.37
2022-12-28T07:49:36.922Z,1008.28
2022-12-28T07:50:17.437Z,1008.31
2022-12-28T07:50:58.015Z,1008.34
2022-12-28T07:51:38.538Z,1008.33
2022-12-28T07:52:19.074Z,1008.34
2022-12-28T07:52:59.613Z,1008.38
2022-12-28T07:53:40.140Z,1008.36
2022-12-28T07:54:20.637Z,1008.34
2022-12-28T07:55:01.167Z,1008.34
2022-12-28T07:55:41.689Z,1008.34
2022-12-28T07:56:22.228Z,1008.34
2022-12-28T07:58:20.991Z,1008.34
2022-12-28T08:00:34.028Z,1008.31
2022-12-28T08:01:14.704Z,1008.34
2022-12-28T08:01:55.174Z,1008.3
2022-12-28T08:02:35.624Z,1008.26
2022-12-28T08:03:16.131Z,1008.31
2022-12-28T08:03:56.706Z,1008.33
2022-12-28T08:04:37.170Z,1008.29
2022-12-28T08:05:17.697Z,1008.31
2022-12-28T08:05:58.194Z,1008.29
2022-12-28T08:06:38.737Z,1008.3
2022-12-28T08:07:19.550Z,1008.3
2022-12-28T08:08:03.627Z,1008.29
2022-12-28T08:08:40.605Z,1008.32
2022-12-28T08:09:21.118Z,1008.32
2022-12-28T08:10:01.786Z,1008.35
2022-12-28T08:10:42.298Z,1008.32
2022-12-28T08:11:22.908Z,1008.34
2022-12-28T08:12:03.460Z,1008.29
2022-12-28T08:12:43.982Z,1008.28
2022-12-28T08:13:24.522Z,1008.26
2022-12-28T08:14:05.077Z,1008.3
2022-12-28T08:14:45.623Z,1008.31
2022-12-28T08:15:26.172Z,1008.29
2022-12-28T08:16:06.784Z,1008.27
2022-12-28T08:16:47.176Z,1008.27
2022-12-28T08:17:27.723Z,1008.24
2022-12-28T08:18:08.262Z,1008.28
2022-12-28T08:18:48.802Z,1008.26
2022-12-28T08:19:29.312Z,1008.28
2022-12-28T08:20:09.831Z,1008.31
2022-12-28T08:20:50.359Z,1008.32
2022-12-28T08:21:30.934Z,1008.29
2022-12-28T08:22:11.936Z,1008.3
2022-12-28T08:22:52.475Z,1008.3
2022-12-28T08:23:33.004Z,1008.29
2022-12-28T08:24:13.574Z,1008.34
2022-12-28T08:24:54.094Z,1008.32
2022-12-28T08:25:34.621Z,1008.32
2022-12-28T08:26:15.120Z,1008.36
2022-12-28T08:26:55.640Z,1008.33
2022-12-28T08:27:38.536Z,1008.34
2022-12-28T08:28:16.675Z,1008.32
2022-12-28T08:28:57.203Z,1008.35
2022-12-28T08:29:37.729Z,1008.3
2022-12-28T08:30:18.261Z,1008.28
2022-12-28T08:30:58.835Z,1008.28
2022-12-28T08:31:39.309Z,1008.29
2022-12-28T08:32:19.851Z,1008.26
2022-12-28T08:33:00.393Z,1008.23
2022-12-28T08:33:41.670Z,1008.25
2022-12-28T08:34:22.196Z,1008.26
2022-12-28T08:36:20.147Z,1008.22
2022-12-28T08:37:00.656Z,1008.21
2022-12-28T08:37:41.177Z,1008.17
2022-12-28T08:38:21.725Z,1008.2
2022-12-28T08:39:02.250Z,1008.21
2022-12-28T08:39:42.807Z,1008.19
2022-12-28T08:40:23.312Z,1008.18
2022-12-28T08:41:03.833Z,1008.14
2022-12-28T08:41:44.381Z,1008.19
2022-12-28T08:42:24.982Z,1008.2
2022-12-28T08:43:05.447Z,1008.18
2022-12-28T08:43:45.964Z,1008.2
2022-12-28T08:44:26.518Z,1008.19
2022-12-28T08:45:07.048Z,1008.18
2022-12-28T08:45:47.637Z,1008.26
2022-12-28T08:46:28.185Z,1008.24
2022-12-28T08:47:08.669Z,1008.25
2022-12-28T08:47:50.051Z,1008.27
2022-12-28T08:48:30.571Z,1008.27
2022-12-28T08:49:11.109Z,1008.27
2022-12-28T08:49:51.602Z,1008.31
2022-12-28T08:50:32.126Z,1008.29
2022-12-28T08:51:12.641Z,1008.28
2022-12-28T08:51:53.150Z,1008.31
2022-12-28T08:52:33.662Z,1008.25
2022-12-28T08:53:14.257Z,1008.26
2022-12-28T08:53:54.805Z,1008.31
2022-12-28T08:54:35.321Z,1008.26
2022-12-28T08:55:15.867Z,1008.28
2022-12-28T08:55:58.995Z,1008.22
2022-12-28T08:56:36.896Z,1008.22
2022-12-28T08:57:17.453Z,1008.21
2022-12-28T08:57:57.949Z,1008.2
2022-12-28T08:58:38.480Z,1008.21
2022-12-28T08:59:19.013Z,1008.25
2022-12-28T08:59:59.527Z,1008.24
2022-12-28T09:00:40.051Z,1008.15
2022-12-28T09:01:21.272Z,1008.15
2022-12-28T09:02:02.537Z,1008.13
2022-12-28T09:02:43.149Z,1008.08
2022-12-28T09:03:23.585Z,1008.1
2022-12-28T09:04:04.129Z,1008.08
2022-12-28T09:04:44.652Z,1008.05
2022-12-28T09:05:25.192Z,1008.09
2022-12-28T09:06:05.697Z,1008.14
2022-12-28T09:06:46.233Z,1008.1
2022-12-28T09:07:26.746Z,1008.08
2022-12-28T09:08:07.294Z,1008.12